createdAt,value
2023-02-09T00:00:04.411Z,-4.31
2023-02-09T00:01:04.395Z,-4.31
2023-02-09T00:02:04.499Z,-4.31
2023-02-09T00:03:04.393Z,-4.25
2023-02-09T00:04:04.509Z,-4.25
2023-02-09T00:05:04.390Z,-4.31
2023-02-09T00:06:03.522Z,-4.31
2023-02-09T00:07:03.510Z,-4.31
2023-02-09T00:08:03.674Z,-4.31
2023-02-09T00:09:03.754Z,-4.31
2023-02-09T00:10:03.684Z,-4.31
2023-02-09T00:11:03.674Z,-4.31
2023-02-09T00:12:03.587Z,-4.25
2023-02-09T00:13:03.599Z,-4.25
2023-02-09T00:14:03.677Z,-4.25
2023-02-09T00:15:03.755Z,-4.19
2023-02-09T00:16:03.901Z,-4.25
2023-02-09T00:17:03.849Z,-4.25
2023-02-09T00:18:03.840Z,-4.25
2023-02-09T00:19:03.930Z,-4.25
2023-02-09T00:20:03.788Z,-4.25
2023-02-09T00:21:03.770Z,-4.25
2023-02-09T00:22:03.752Z,-4.19
2023-02-09T00:23:03.754Z,-4.19
2023-02-09T00:24:03.762Z,-4.12
2023-02-09T00:25:03.777Z,-4.19
2023-02-09T00:26:03.754Z,-4.19
2023-02-09T00:27:03.757Z,-4.25
2023-02-09T00:28:03.787Z,-4.25
2023-02-09T00:29:03.765Z,-4.25
2023-02-09T00:30:03.664Z,-4.25
2023-02-09T00:31:03.715Z,-4.25
2023-02-09T00:32:03.679Z,-4.25
2023-02-09T00:33:03.601Z,-4.31
2023-02-09T00:34:03.601Z,-4.31
2023-02-09T00:35:03.590Z,-4.31
2023-02-09T00:36:03.676Z,-4.31
2023-02-09T00:37:03.672Z,-4.31
2023-02-09T00:38:03.669Z,-4.31
2023-02-09T00:39:03.830Z,-4.31
2023-02-09T00:40:03.759Z,-4.38
2023-02-09T00:41:03.773Z,-4.38
2023-02-09T00:42:03.746Z,-4.38
2023-02-09T00:43:03.905Z,-4.38
2023-02-09T00:44:03.914Z,-4.44
2023-02-09T00:45:04.092Z,-4.44
2023-02-09T00:46:04.080Z,-4.44
2023-02-09T00:47:04.091Z,-4.44
2023-02-09T00:48:04.088Z,-4.44
2023-02-09T00:49:04.078Z,-4.44
2023-02-09T00:50:04.241Z,-4.50
2023-02-09T00:51:04.245Z,-4.56
2023-02-09T00:52:04.231Z,-4.56
2023-02-09T00:53:04.157Z,-4.56
2023-02-09T00:54:04.073Z,-4.56
2023-02-09T00:55:03.985Z,-4.56
2023-02-09T00:56:03.993Z,-4.62
2023-02-09T00:57:03.909Z,-4.62
2023-02-09T00:58:03.987Z,-4.62
2023-02-09T00:59:03.920Z,-4.62
2023-02-09T01:00:04.000Z,-4.69
2023-02-09T01:01:04.001Z,-4.69
2023-02-09T01:02:03.983Z,-4.69
2023-02-09T01:03:04.104Z,-4.69
2023-02-09T01:04:04.005Z,-4.75
2023-02-09T01:05:04.205Z,-4.75
2023-02-09T01:06:04.074Z,-4.75
2023-02-09T01:07:04.069Z,-4.81
2023-02-09T01:08:04.059Z,-4.81
2023-02-09T01:09:04.164Z,-4.81
2023-02-09T01:10:04.496Z,-4.88
2023-02-09T01:11:03.767Z,-4.88
2023-02-09T01:12:03.675Z,-4.88
2023-02-09T01:13:03.754Z,-4.88
2023-02-09T01:14:03.672Z,-4.88
2023-02-09T01:15:03.668Z,-4.88
2023-02-09T01:16:03.762Z,-4.94
2023-02-09T01:17:03.777Z,-4.94
2023-02-09T01:18:03.833Z,-4.94
2023-02-09T01:19:03.739Z,-4.94
2023-02-09T01:20:03.830Z,-4.94
2023-02-09T01:21:03.840Z,-5.00
2023-02-09T01:22:03.657Z,-5.06
2023-02-09T01:23:03.678Z,-5.06
2023-02-09T01:24:03.766Z,-5.06
2023-02-09T01:25:03.758Z,-5.12
2023-02-09T01:26:03.673Z,-5.12
2023-02-09T01:27:03.753Z,-5.19
2023-02-09T01:28:03.721Z,-5.19
2023-02-09T01:29:03.753Z,-5.19
2023-02-09T01:30:03.739Z,-5.25
2023-02-09T01:31:03.900Z,-5.25
2023-02-09T01:32:03.890Z,-5.25
2023-02-09T01:33:03.829Z,-5.25
2023-02-09T01:34:03.750Z,-5.31
2023-02-09T01:35:03.743Z,-5.31
2023-02-09T01:36:03.836Z,-5.38
2023-02-09T01:37:03.751Z,-5.38
2023-02-09T01:38:03.699Z,-5.38
2023-02-09T01:39:03.750Z,-5.38
2023-02-09T01:40:03.666Z,-5.38
2023-02-09T01:41:03.834Z,-5.38
2023-02-09T01:42:03.685Z,-5.44
2023-02-09T01:43:03.745Z,-5.44
2023-02-09T01:44:03.774Z,-5.50
2023-02-09T01:45:03.741Z,-5.50
2023-02-09T01:46:03.697Z,-5.50
2023-02-09T01:47:03.668Z,-5.50
2023-02-09T01:48:03.845Z,-5.56
2023-02-09T01:49:03.756Z,-5.56
2023-02-09T01:50:03.828Z,-5.62
2023-02-09T01:51:03.994Z,-5.62
2023-02-09T01:52:04.160Z,-5.62
2023-02-09T01:53:04.076Z,-5.62
2023-02-09T01:54:04.064Z,-5.62
2023-02-09T01:55:04.225Z,-5.69
2023-02-09T01:56:04.232Z,-5.69
2023-02-09T01:57:04.230Z,-5.69
2023-02-09T01:58:04.149Z,-5.69
2023-02-09T01:59:04.223Z,-5.69
2023-02-09T02:00:04.158Z,-5.75
2023-02-09T02:01:04.194Z,-5.75
2023-02-09T02:02:04.149Z,-5.81
2023-02-09T02:03:04.180Z,-5.81
2023-02-09T02:04:04.154Z,-5.81
2023-02-09T02:05:04.075Z,-5.81
2023-02-09T02:06:04.022Z,-5.81
2023-02-09T02:07:04.075Z,-5.81
2023-02-09T02:08:04.397Z,-5.81
2023-02-09T02:09:04.403Z,-5.88
2023-02-09T02:10:04.385Z,-5.88
2023-02-09T02:11:04.404Z,-5.88
2023-02-09T02:12:04.560Z,-5.88
2023-02-09T02:13:03.528Z,-5.94
2023-02-09T02:14:03.598Z,-5.94
2023-02-09T02:15:03.521Z,-5.94
2023-02-09T02:16:03.653Z,-5.94
2023-02-09T02:17:03.587Z,-5.94
2023-02-09T02:18:03.506Z,-5.94
2023-02-09T02:19:03.509Z,-5.94
2023-02-09T02:20:03.601Z,-6.00
2023-02-09T02:21:03.595Z,-6.00
2023-02-09T02:22:03.754Z,-6.06
2023-02-09T02:23:03.662Z,-6.06
2023-02-09T02:24:03.901Z,-6.06
2023-02-09T02:25:03.837Z,-6.06
2023-02-09T02:26:05.255Z,-6.06
2023-02-09T02:27:03.836Z,-6.12
2023-02-09T02:28:03.799Z,-6.12
2023-02-09T02:29:03.758Z,-6.19
2023-02-09T02:30:03.768Z,-6.19
2023-02-09T02:31:03.908Z,-6.19
2023-02-09T02:32:03.666Z,-6.19
2023-02-09T02:33:03.761Z,-6.25
2023-02-09T02:34:03.742Z,-6.19
2023-02-09T02:35:03.748Z,-6.19
2023-02-09T02:36:03.826Z,-6.19
2023-02-09T02:37:03.739Z,-6.19
2023-02-09T02:38:03.921Z,-6.25
2023-02-09T02:39:03.981Z,-6.25
2023-02-09T02:40:04.013Z,-6.31
2023-02-09T02:41:03.975Z,-6.31
2023-02-09T02:42:03.969Z,-6.31
2023-02-09T02:43:04.063Z,-6.31
2023-02-09T02:44:04.055Z,-6.38
2023-02-09T02:45:04.253Z,-6.38
2023-02-09T02:46:03.619Z,-6.38
2023-02-09T02:47:04.461Z,-6.44
2023-02-09T02:48:04.380Z,-6.44
2023-02-09T02:49:04.391Z,-6.44
2023-02-09T02:50:04.461Z,-6.44
2023-02-09T02:51:04.519Z,-6.44
2023-02-09T02:52:04.470Z,-6.50
2023-02-09T02:53:03.551Z,-6.50
2023-02-09T02:54:04.461Z,-6.56
2023-02-09T02:55:03.506Z,-6.56
2023-02-09T02:56:03.608Z,-6.56
2023-02-09T02:57:03.553Z,-6.56
2023-02-09T02:58:04.470Z,-6.56
2023-02-09T02:59:04.480Z,-6.44
2023-02-09T03:00:03.501Z,-6.50
2023-02-09T03:01:03.594Z,-6.56
2023-02-09T03:02:03.422Z,-6.56
2023-02-09T03:03:03.515Z,-6.62
2023-02-09T03:04:03.436Z,-6.62
2023-02-09T03:05:03.784Z,-6.62
2023-02-09T03:06:03.680Z,-6.69
2023-02-09T03:07:03.671Z,-6.69
2023-02-09T03:08:03.680Z,-6.69
2023-02-09T03:09:04.317Z,-6.75
2023-02-09T03:10:04.343Z,-6.69
2023-02-09T03:11:04.422Z,-6.69
2023-02-09T03:12:04.471Z,-6.75
2023-02-09T03:13:03.597Z,-6.75
2023-02-09T03:14:03.587Z,-6.75
2023-02-09T03:15:03.687Z,-6.81
2023-02-09T03:16:03.800Z,-6.81
2023-02-09T03:17:03.759Z,-6.81
2023-02-09T03:18:03.753Z,-6.88
2023-02-09T03:19:03.742Z,-6.88
2023-02-09T03:20:03.760Z,-6.88
2023-02-09T03:21:03.758Z,-6.88
2023-02-09T03:22:03.937Z,-6.88
2023-02-09T03:23:03.831Z,-6.94
2023-02-09T03:24:03.824Z,-6.94
2023-02-09T03:25:03.925Z,-6.94
2023-02-09T03:26:03.910Z,-6.94
2023-02-09T03:27:03.989Z,-6.94
2023-02-09T03:28:03.953Z,-6.94
2023-02-09T03:29:03.996Z,-6.94
2023-02-09T03:30:03.992Z,-6.94
2023-02-09T03:31:04.182Z,-6.94
2023-02-09T03:32:04.099Z,-7.00
2023-02-09T03:33:04.071Z,-7.00
2023-02-09T03:34:04.077Z,-7.06
2023-02-09T03:35:04.106Z,-7.06
2023-02-09T03:36:04.068Z,-7.06
2023-02-09T03:37:03.990Z,-7.00
2023-02-09T03:38:04.148Z,-7.00
2023-02-09T03:39:04.151Z,-7.00
2023-02-09T03:40:04.076Z,-7.06
2023-02-09T03:41:04.062Z,-7.06
2023-02-09T03:42:04.148Z,-7.06
2023-02-09T03:43:04.224Z,-7.06
2023-02-09T03:44:04.236Z,-7.12
2023-02-09T03:45:04.229Z,-7.12
2023-02-09T03:46:04.237Z,-7.12
2023-02-09T03:47:04.168Z,-7.12
2023-02-09T03:48:04.150Z,-7.12
2023-02-09T03:49:04.141Z,-7.19
2023-02-09T03:50:04.227Z,-7.19
2023-02-09T03:51:04.226Z,-7.19
2023-02-09T03:52:04.144Z,-7.12
2023-02-09T03:53:04.176Z,-7.19
2023-02-09T03:54:04.064Z,-7.19
2023-02-09T03:55:04.071Z,-7.19
2023-02-09T03:56:04.070Z,-7.19
2023-02-09T03:57:04.074Z,-7.19
2023-02-09T03:58:03.988Z,-7.19
2023-02-09T03:59:04.152Z,-7.19
2023-02-09T04:00:04.151Z,-7.19
2023-02-09T04:01:04.194Z,-7.19
2023-02-09T04:02:04.113Z,-7.19
2023-02-09T04:03:04.226Z,-7.19
2023-02-09T04:04:04.152Z,-7.19
2023-02-09T04:05:05.652Z,-7.19
2023-02-09T04:06:04.155Z,-7.25
2023-02-09T04:07:04.152Z,-7.25
2023-02-09T04:08:03.589Z,-7.19
2023-02-09T04:09:03.503Z,-7.19
2023-02-09T04:10:03.499Z,-7.19
2023-02-09T04:11:03.695Z,-7.19
2023-02-09T04:12:03.676Z,-7.25
2023-02-09T04:13:03.580Z,-7.25
2023-02-09T04:14:03.676Z,-7.25
2023-02-09T04:15:03.591Z,-7.19
2023-02-09T04:16:03.686Z,-7.19
2023-02-09T04:17:03.684Z,-7.19
2023-02-09T04:18:03.816Z,-7.19
2023-02-09T04:19:03.909Z,-7.12
2023-02-09T04:20:04.032Z,-7.12
2023-02-09T04:21:03.982Z,-7.19
2023-02-09T04:22:04.070Z,-7.19
2023-02-09T04:23:03.925Z,-7.19
2023-02-09T04:24:03.982Z,-7.19
2023-02-09T04:25:04.081Z,-7.19
2023-02-09T04:26:03.990Z,-7.19
2023-02-09T04:27:03.990Z,-7.19
2023-02-09T04:28:04.168Z,-7.19
2023-02-09T04:29:04.157Z,-7.19
2023-02-09T04:30:04.232Z,-7.19
2023-02-09T04:31:04.211Z,-7.19
2023-02-09T04:32:04.226Z,-7.25
2023-02-09T04:33:04.067Z,-7.25
2023-02-09T04:34:04.148Z,-7.25
2023-02-09T04:35:04.157Z,-7.25
2023-02-09T04:36:04.152Z,-7.25
2023-02-09T04:37:04.262Z,-7.25
2023-02-09T04:38:04.227Z,-7.25
2023-02-09T04:39:04.316Z,-7.31
2023-02-09T04:40:05.698Z,-7.31
2023-02-09T04:41:04.241Z,-7.31
2023-02-09T04:42:04.145Z,-7.31
2023-02-09T04:43:04.145Z,-7.31
2023-02-09T04:44:04.223Z,-7.25
2023-02-09T04:45:04.319Z,-7.31
2023-02-09T04:46:04.451Z,-7.31
2023-02-09T04:47:04.252Z,-7.31
2023-02-09T04:48:04.243Z,-7.31
2023-02-09T04:49:04.148Z,-7.38
2023-02-09T04:50:04.198Z,-7.38
2023-02-09T04:51:04.225Z,-7.38
2023-02-09T04:52:04.242Z,-7.38
2023-02-09T04:53:04.238Z,-7.38
2023-02-09T04:54:04.236Z,-7.38
2023-02-09T04:55:04.305Z,-7.38
2023-02-09T04:56:04.396Z,-7.44
2023-02-09T04:57:04.398Z,-7.44
2023-02-09T04:58:04.394Z,-7.44
2023-02-09T04:59:04.398Z,-7.44
2023-02-09T05:00:04.329Z,-7.44
2023-02-09T05:01:04.456Z,-7.44
2023-02-09T05:02:04.394Z,-7.44
2023-02-09T05:03:04.546Z,-7.44
2023-02-09T05:04:04.405Z,-7.44
2023-02-09T05:05:04.442Z,-7.44
2023-02-09T05:06:04.394Z,-7.50
2023-02-09T05:07:04.306Z,-7.44
2023-02-09T05:08:04.322Z,-7.44
2023-02-09T05:09:04.311Z,-7.50
2023-02-09T05:10:04.334Z,-7.50
2023-02-09T05:11:04.231Z,-7.50
2023-02-09T05:12:04.319Z,-7.44
2023-02-09T05:13:04.308Z,-7.50
2023-02-09T05:14:04.236Z,-7.44
2023-02-09T05:15:04.237Z,-7.50
2023-02-09T05:16:04.195Z,-7.50
2023-02-09T05:17:04.239Z,-7.50
2023-02-09T05:18:04.237Z,-7.50
2023-02-09T05:19:04.161Z,-7.50
2023-02-09T05:20:04.072Z,-7.56
2023-02-09T05:21:04.087Z,-7.56
2023-02-09T05:22:04.168Z,-7.56
2023-02-09T05:23:04.177Z,-7.56
2023-02-09T05:24:04.234Z,-7.56
2023-02-09T05:25:04.609Z,-7.56
2023-02-09T05:26:04.387Z,-7.56
2023-02-09T05:27:04.401Z,-7.56
2023-02-09T05:28:04.444Z,-7.56
2023-02-09T05:29:04.413Z,-7.56
2023-02-09T05:30:04.327Z,-7.56
2023-02-09T05:31:04.441Z,-7.62
2023-02-09T05:32:04.517Z,-7.62
2023-02-09T05:33:04.467Z,-7.62
2023-02-09T05:34:03.602Z,-7.62
2023-02-09T05:35:03.516Z,-7.62
2023-02-09T05:36:03.586Z,-7.62
2023-02-09T05:37:03.597Z,-7.62
2023-02-09T05:38:03.518Z,-7.62
2023-02-09T05:39:04.504Z,-7.56
2023-02-09T05:40:03.515Z,-7.62
2023-02-09T05:41:04.478Z,-7.62
2023-02-09T05:42:04.386Z,-7.62
2023-02-09T05:43:04.397Z,-7.62
2023-02-09T05:44:04.546Z,-7.69
2023-02-09T05:45:04.420Z,-7.62
2023-02-09T05:46:06.427Z,-7.62
2023-02-09T05:47:04.391Z,-7.69
2023-02-09T05:48:04.405Z,-7.69
2023-02-09T05:49:04.481Z,-7.69
2023-02-09T05:50:04.395Z,-7.69
2023-02-09T05:51:04.389Z,-7.75
2023-02-09T05:52:03.570Z,-7.75
2023-02-09T05:53:03.609Z,-7.75
2023-02-09T05:54:03.537Z,-7.75
2023-02-09T05:55:03.592Z,-7.75
2023-02-09T05:56:03.518Z,-7.69
2023-02-09T05:57:03.661Z,-7.69
2023-02-09T05:58:03.672Z,-7.69
2023-02-09T05:59:04.547Z,-7.69
2023-02-09T06:00:03.692Z,-7.69
2023-02-09T06:01:03.717Z,-7.69
2023-02-09T06:02:03.731Z,-7.75
2023-02-09T06:03:03.657Z,-7.75
2023-02-09T06:04:03.664Z,-7.69
2023-02-09T06:05:03.675Z,-7.69
2023-02-09T06:06:03.584Z,-7.69
2023-02-09T06:07:03.754Z,-7.69
2023-02-09T06:08:03.677Z,-7.69
2023-02-09T06:09:03.584Z,-7.69
2023-02-09T06:10:03.744Z,-7.69
2023-02-09T06:11:03.749Z,-7.69
2023-02-09T06:12:03.675Z,-7.69
2023-02-09T06:13:03.662Z,-7.69
2023-02-09T06:14:03.779Z,-7.69
2023-02-09T06:15:03.840Z,-7.69
2023-02-09T06:16:03.965Z,-7.69
2023-02-09T06:17:04.007Z,-7.69
2023-02-09T06:18:03.994Z,-7.69
2023-02-09T06:19:04.075Z,-7.69
2023-02-09T06:20:04.068Z,-7.69
2023-02-09T06:21:04.125Z,-7.62
2023-02-09T06:22:03.998Z,-7.62
2023-02-09T06:23:04.068Z,-7.69
2023-02-09T06:24:03.995Z,-7.69
2023-02-09T06:25:04.063Z,-7.62
2023-02-09T06:26:04.320Z,-7.62
2023-02-09T06:27:09.569Z,-7.62
2023-02-09T06:28:03.756Z,-7.56
2023-02-09T06:29:03.792Z,-7.56
2023-02-09T06:30:03.755Z,-7.62
2023-02-09T06:31:03.825Z,-7.62
2023-02-09T06:32:03.767Z,-7.62
2023-02-09T06:33:03.676Z,-7.62
2023-02-09T06:34:03.755Z,-7.62
2023-02-09T06:35:03.757Z,-7.62
2023-02-09T06:36:03.827Z,-7.62
2023-02-09T06:37:03.844Z,-7.62
2023-02-09T06:38:03.906Z,-7.62
2023-02-09T06:39:03.837Z,-7.62
2023-02-09T06:40:03.791Z,-7.62
2023-02-09T06:41:03.772Z,-7.56
2023-02-09T06:42:03.599Z,-7.56
2023-02-09T06:43:03.698Z,-7.56
2023-02-09T06:44:03.691Z,-7.56
2023-02-09T06:45:03.763Z,-7.56
2023-02-09T06:46:03.724Z,-7.56
2023-02-09T06:47:03.696Z,-7.50
2023-02-09T06:48:03.603Z,-7.50
2023-02-09T06:49:03.634Z,-7.44
2023-02-09T06:50:03.615Z,-7.38
2023-02-09T06:51:03.672Z,-7.38
2023-02-09T06:52:03.596Z,-7.38
2023-02-09T06:53:03.679Z,-7.38
2023-02-09T06:54:03.675Z,-7.38
2023-02-09T06:55:03.743Z,-7.38
2023-02-09T06:56:03.701Z,-7.31
2023-02-09T06:57:03.764Z,-7.31
2023-02-09T06:58:03.792Z,-7.25
2023-02-09T06:59:03.693Z,-7.25
2023-02-09T07:00:03.655Z,-7.19
2023-02-09T07:01:03.538Z,-7.19
2023-02-09T07:02:03.721Z,-7.19
2023-02-09T07:03:03.631Z,-7.12
2023-02-09T07:04:03.515Z,-7.12
2023-02-09T07:05:03.608Z,-7.12
2023-02-09T07:06:03.664Z,-7.06
2023-02-09T07:07:03.662Z,-7.06
2023-02-09T07:08:03.763Z,-7.06
2023-02-09T07:09:03.838Z,-7.00
2023-02-09T07:10:03.910Z,-6.88
2023-02-09T07:11:03.828Z,-6.81
2023-02-09T07:12:04.078Z,-6.75
2023-02-09T07:13:04.162Z,-6.75
2023-02-09T07:14:04.167Z,-6.75
2023-02-09T07:15:04.077Z,-6.75
2023-02-09T07:16:04.105Z,-6.75
2023-02-09T07:17:04.071Z,-6.69
2023-02-09T07:18:04.092Z,-6.69
2023-02-09T07:19:04.021Z,-6.62
2023-02-09T07:20:03.916Z,-6.56
2023-02-09T07:21:03.990Z,-6.44
2023-02-09T07:22:03.915Z,-6.25
2023-02-09T07:23:04.069Z,-6.12
2023-02-09T07:24:04.397Z,-6.00
2023-02-09T07:25:04.405Z,-5.88
2023-02-09T07:26:04.322Z,-5.69
2023-02-09T07:27:03.520Z,-5.56
2023-02-09T07:28:04.486Z,-5.38
2023-02-09T07:29:03.510Z,-5.25
2023-02-09T07:30:04.479Z,-5.12
2023-02-09T07:31:03.629Z,-5.00
2023-02-09T07:32:03.611Z,-4.81
2023-02-09T07:33:04.473Z,-4.69
2023-02-09T07:34:04.465Z,-4.50
2023-02-09T07:35:04.469Z,-4.38
2023-02-09T07:36:03.561Z,-4.19
2023-02-09T07:37:03.608Z,-4.00
2023-02-09T07:38:03.773Z,-3.81
2023-02-09T07:39:03.692Z,-3.69
2023-02-09T07:40:03.748Z,-3.50
2023-02-09T07:41:03.782Z,-3.38
2023-02-09T07:42:03.669Z,-3.31
2023-02-09T07:43:03.664Z,-3.19
2023-02-09T07:44:03.673Z,-3.06
2023-02-09T07:45:03.667Z,-2.94
2023-02-09T07:46:03.749Z,-2.81
2023-02-09T07:47:03.774Z,-2.75
2023-02-09T07:48:03.764Z,-2.62
2023-02-09T07:49:03.754Z,-2.56
2023-02-09T07:50:03.850Z,-2.50
2023-02-09T07:51:03.912Z,-2.44
2023-02-09T07:52:03.842Z,-2.38
2023-02-09T07:53:03.830Z,-2.25
2023-02-09T07:54:04.663Z,-2.19
2023-02-09T07:55:03.748Z,-2.12
2023-02-09T07:56:03.760Z,-2.00
2023-02-09T07:57:03.750Z,-1.94
2023-02-09T07:58:03.825Z,-1.88
2023-02-09T07:59:03.742Z,-1.75
2023-02-09T08:00:03.927Z,-1.69
2023-02-09T08:01:03.825Z,-1.56
2023-02-09T08:02:04.027Z,-1.50
2023-02-09T08:03:03.915Z,-1.38
2023-02-09T08:04:03.830Z,-1.31
2023-02-09T08:05:03.921Z,-1.19
2023-02-09T08:06:03.824Z,-1.06
2023-02-09T08:07:03.899Z,-1.00
2023-02-09T08:08:03.977Z,-0.94
2023-02-09T08:09:03.984Z,-0.81
2023-02-09T08:10:04.084Z,-0.69
2023-02-09T08:11:04.062Z,-0.62
2023-02-09T08:12:04.182Z,-0.50
2023-02-09T08:13:04.077Z,-0.44
2023-02-09T08:14:04.087Z,-0.31
2023-02-09T08:15:03.992Z,-0.19
2023-02-09T08:16:04.011Z,-0.12
2023-02-09T08:17:03.985Z,-0.06
2023-02-09T08:18:04.084Z,0.00
2023-02-09T08:19:03.983Z,0.06
2023-02-09T08:20:04.147Z,0.06
2023-02-09T08:21:04.230Z,0.12
2023-02-09T08:22:04.249Z,0.12
2023-02-09T08:23:04.313Z,0.12
2023-02-09T08:24:04.248Z,0.12
2023-02-09T08:25:04.244Z,0.06
2023-02-09T08:26:04.240Z,0.06
2023-02-09T08:27:04.158Z,0.00
2023-02-09T08:28:04.295Z,0.00
2023-02-09T08:29:04.168Z,-0.06
2023-02-09T08:30:04.161Z,-0.12
2023-02-09T08:31:04.252Z,-0.12
2023-02-09T08:32:03.594Z,-0.19
2023-02-09T08:33:03.588Z,-0.19
2023-02-09T08:34:03.598Z,-0.25
2023-02-09T08:37:03.583Z,-0.25
2023-02-09T08:38:03.666Z,-0.25
2023-02-09T08:39:03.664Z,-0.25
2023-02-09T08:41:03.772Z,-0.25
2023-02-09T08:42:03.745Z,-0.25
2023-02-09T08:43:03.825Z,-0.25
2023-02-09T08:44:03.904Z,-0.19
2023-02-09T08:45:03.821Z,-0.19
2023-02-09T08:46:03.999Z,-0.19
2023-02-09T08:47:04.054Z,-0.19
2023-02-09T08:48:03.915Z,-0.12
2023-02-09T08:49:03.996Z,-0.12
2023-02-09T08:50:03.919Z,-0.12
2023-02-09T08:51:03.938Z,-0.12
2023-02-09T08:52:03.990Z,-0.06
2023-02-09T08:53:03.921Z,-0.06
2023-02-09T08:54:04.077Z,-0.06
2023-02-09T08:55:03.997Z,-0.06
2023-02-09T08:56:04.014Z,-0.06
2023-02-09T08:57:03.915Z,0.00
2023-02-09T08:58:04.004Z,0.00
2023-02-09T08:59:04.007Z,0.00
2023-02-09T09:00:04.002Z,0.00
2023-02-09T09:01:04.136Z,0.00
2023-02-09T09:02:04.016Z,0.00
2023-02-09T09:03:04.004Z,0.00
2023-02-09T09:04:04.245Z,0.00
2023-02-09T09:05:04.161Z,0.00
2023-02-09T09:06:04.239Z,0.00
2023-02-09T09:07:05.054Z,-0.06
2023-02-09T09:08:04.157Z,-0.06
2023-02-09T09:09:04.176Z,-0.06
2023-02-09T09:10:04.182Z,-0.06
2023-02-09T09:11:04.159Z,-0.06
2023-02-09T09:12:04.176Z,-0.06
2023-02-09T09:13:04.316Z,-0.06
2023-02-09T09:14:04.153Z,-0.06
2023-02-09T09:15:04.173Z,-0.06
2023-02-09T09:16:05.242Z,-0.12
2023-02-09T09:17:04.313Z,-0.12
2023-02-09T09:18:04.393Z,-0.19
2023-02-09T09:19:04.530Z,-0.19
2023-02-09T09:20:04.390Z,-0.19
2023-02-09T09:21:04.321Z,-0.19
2023-02-09T09:22:04.369Z,-0.19
2023-02-09T09:23:04.316Z,-0.19
2023-02-09T09:24:04.336Z,-0.25
2023-02-09T09:25:04.386Z,-0.25
2023-02-09T09:26:04.384Z,-0.25
2023-02-09T09:27:04.469Z,-0.25
2023-02-09T09:28:03.608Z,-0.25
2023-02-09T09:29:03.620Z,-0.25
2023-02-09T09:30:04.481Z,-0.25
2023-02-09T09:31:03.573Z,-0.25
2023-02-09T09:32:03.678Z,-0.25
2023-02-09T09:33:03.696Z,-0.31
2023-02-09T09:34:03.620Z,-0.31
2023-02-09T09:35:03.604Z,-0.31
2023-02-09T09:36:03.693Z,-0.31
2023-02-09T09:37:03.612Z,-0.31
2023-02-09T09:38:03.682Z,-0.31
2023-02-09T09:39:03.673Z,-0.31
2023-02-09T09:40:03.604Z,-0.31
2023-02-09T09:41:03.757Z,-0.31
2023-02-09T09:42:03.692Z,-0.25
2023-02-09T09:43:03.670Z,-0.25
2023-02-09T09:44:03.764Z,-0.25
2023-02-09T09:45:03.853Z,-0.25
2023-02-09T09:46:04.009Z,-0.25
2023-02-09T09:47:03.922Z,-0.25
2023-02-09T09:48:03.926Z,-0.25
2023-02-09T09:49:04.072Z,-0.25
2023-02-09T09:50:04.101Z,-0.19
2023-02-09T09:51:04.077Z,-0.19
2023-02-09T09:52:04.175Z,-0.19
2023-02-09T09:53:03.996Z,-0.19
2023-02-09T09:54:04.159Z,-0.19
2023-02-09T09:55:04.238Z,-0.12
2023-02-09T09:56:04.150Z,-0.12
2023-02-09T09:57:04.152Z,-0.12
2023-02-09T09:58:04.228Z,-0.12
2023-02-09T09:59:04.239Z,-0.06
2023-02-09T10:00:04.323Z,-0.06
2023-02-09T10:01:04.359Z,-0.06
2023-02-09T10:02:04.248Z,0.00
2023-02-09T10:03:04.395Z,0.00
2023-02-09T10:04:04.392Z,0.00
2023-02-09T10:05:04.399Z,0.00
2023-02-09T10:06:04.325Z,0.06
2023-02-09T10:07:04.393Z,0.06
2023-02-09T10:08:04.419Z,0.06
2023-02-09T10:09:04.395Z,0.12
2023-02-09T10:10:04.504Z,0.12
2023-02-09T10:11:04.406Z,0.12
2023-02-09T10:12:04.318Z,0.19
2023-02-09T10:13:03.513Z,0.19
2023-02-09T10:14:03.680Z,0.19
2023-02-09T10:15:03.617Z,0.25
2023-02-09T10:16:03.786Z,0.25
2023-02-09T10:17:03.873Z,0.25
2023-02-09T10:18:03.964Z,0.31
2023-02-09T10:19:03.849Z,0.31
2023-02-09T10:20:03.832Z,0.38
2023-02-09T10:21:03.839Z,0.38
2023-02-09T10:22:03.844Z,0.44
2023-02-09T10:23:04.002Z,0.44
2023-02-09T10:24:04.080Z,0.44
2023-02-09T10:25:04.004Z,0.44
2023-02-09T10:26:04.022Z,0.50
2023-02-09T10:27:03.991Z,0.50
2023-02-09T10:28:04.030Z,0.50
2023-02-09T10:29:03.917Z,0.56
2023-02-09T10:30:04.159Z,0.56
2023-02-09T10:31:04.333Z,0.56
2023-02-09T10:32:04.295Z,0.62
2023-02-09T10:33:04.232Z,0.62
2023-02-09T10:34:04.392Z,0.69
2023-02-09T10:35:04.405Z,0.69
2023-02-09T10:36:04.316Z,0.69
2023-02-09T10:37:04.309Z,0.75
2023-02-09T10:38:04.338Z,0.81
2023-02-09T10:39:04.247Z,0.81
2023-02-09T10:40:04.316Z,0.81
2023-02-09T10:41:04.326Z,0.88
2023-02-09T10:42:04.316Z,0.88
2023-02-09T10:43:04.391Z,0.88
2023-02-09T10:44:04.559Z,0.88
2023-02-09T10:45:04.398Z,0.94
2023-02-09T10:46:04.376Z,0.94
2023-02-09T10:47:04.405Z,1.00
2023-02-09T10:48:04.220Z,1.00
2023-02-09T10:49:04.426Z,1.00
2023-02-09T10:50:04.345Z,1.06
2023-02-09T10:51:04.310Z,1.06
2023-02-09T10:52:03.626Z,1.12
2023-02-09T10:53:03.508Z,1.12
2023-02-09T10:54:03.664Z,1.19
2023-02-09T10:55:03.675Z,1.19
2023-02-09T10:56:03.675Z,1.19
2023-02-09T10:57:03.582Z,1.25
2023-02-09T10:58:03.728Z,1.25
2023-02-09T10:59:03.751Z,1.31
2023-02-09T11:00:03.844Z,1.31
2023-02-09T11:01:03.809Z,1.38
2023-02-09T11:02:03.699Z,1.38
2023-02-09T11:03:03.827Z,1.38
2023-02-09T11:04:03.926Z,1.44
2023-02-09T11:05:03.849Z,1.44
2023-02-09T11:06:03.742Z,1.50
2023-02-09T11:07:03.760Z,1.50
2023-02-09T11:08:03.667Z,1.50
2023-02-09T11:09:03.832Z,1.56
2023-02-09T11:10:03.745Z,1.56
2023-02-09T11:11:03.754Z,1.56
2023-02-09T11:12:03.750Z,1.56
2023-02-09T11:13:03.769Z,1.62
2023-02-09T11:14:03.677Z,1.62
2023-02-09T11:15:03.749Z,1.62
2023-02-09T11:16:03.894Z,1.62
2023-02-09T11:17:03.828Z,1.69
2023-02-09T11:18:03.765Z,1.69
2023-02-09T11:19:04.895Z,1.69
2023-02-09T11:20:03.757Z,1.75
2023-02-09T11:21:03.826Z,1.75
2023-02-09T11:22:03.848Z,1.75
2023-02-09T11:23:03.826Z,1.81
2023-02-09T11:24:03.920Z,1.81
2023-02-09T11:25:03.834Z,1.81
2023-02-09T11:26:03.826Z,1.81
2023-02-09T11:27:03.991Z,1.88
2023-02-09T11:28:03.948Z,1.88
2023-02-09T11:29:03.912Z,1.88
2023-02-09T11:30:03.910Z,1.88
2023-02-09T11:31:04.026Z,1.94
2023-02-09T11:32:04.109Z,1.94
2023-02-09T11:33:03.906Z,1.94
2023-02-09T11:34:03.990Z,2.00
2023-02-09T11:35:03.835Z,2.00
2023-02-09T11:36:03.754Z,2.00
2023-02-09T11:37:03.747Z,2.06
2023-02-09T11:38:03.754Z,2.12
2023-02-09T11:39:03.757Z,2.12
2023-02-09T11:40:03.829Z,2.12
2023-02-09T11:41:03.921Z,2.19
2023-02-09T11:42:03.839Z,2.19
2023-02-09T11:43:03.918Z,2.19
2023-02-09T11:44:03.995Z,2.19
2023-02-09T11:45:03.990Z,2.19
2023-02-09T11:46:04.106Z,2.25
2023-02-09T11:47:04.074Z,2.25
2023-02-09T11:48:04.163Z,2.25
2023-02-09T11:49:04.156Z,2.31
2023-02-09T11:50:04.076Z,2.31
2023-02-09T11:51:04.171Z,2.31
2023-02-09T11:52:04.150Z,2.38
2023-02-09T11:53:04.235Z,2.38
2023-02-09T11:54:04.328Z,2.44
2023-02-09T11:55:04.241Z,2.44
2023-02-09T11:56:04.232Z,2.44
2023-02-09T11:57:04.346Z,2.44
2023-02-09T11:58:04.224Z,2.44
2023-02-09T11:59:04.314Z,2.44
2023-02-09T12:00:04.428Z,2.50
2023-02-09T12:01:14.929Z,2.50
2023-02-09T12:02:04.402Z,2.50
2023-02-09T12:03:04.601Z,2.50
2023-02-09T12:04:04.024Z,2.50
2023-02-09T12:05:03.516Z,2.56
2023-02-09T12:06:03.836Z,2.50
2023-02-09T12:07:03.922Z,2.56
2023-02-09T12:08:03.993Z,2.56
2023-02-09T12:09:04.079Z,2.56
2023-02-09T12:10:04.163Z,2.56
2023-02-09T12:11:04.164Z,2.56
2023-02-09T12:12:04.071Z,2.56
2023-02-09T12:13:04.151Z,2.62
2023-02-09T12:14:04.228Z,2.62
2023-02-09T12:15:04.238Z,2.62
2023-02-09T12:16:04.299Z,2.62
2023-02-09T12:17:04.317Z,2.62
2023-02-09T12:18:04.492Z,2.62
2023-02-09T12:19:04.404Z,2.69
2023-02-09T12:20:04.488Z,2.69
2023-02-09T12:21:04.481Z,2.69
2023-02-09T12:22:04.503Z,2.69
2023-02-09T12:23:04.423Z,2.75
2023-02-09T12:24:04.501Z,2.75
2023-02-09T12:25:04.398Z,2.75
2023-02-09T12:26:04.468Z,2.81
2023-02-09T12:27:03.515Z,2.81
2023-02-09T12:28:03.644Z,2.81
2023-02-09T12:29:03.623Z,2.81
2023-02-09T12:30:03.596Z,2.88
2023-02-09T12:31:03.846Z,2.88
2023-02-09T12:32:03.771Z,2.88
2023-02-09T12:33:03.671Z,2.94
2023-02-09T12:34:03.682Z,2.94
2023-02-09T12:35:03.761Z,2.94
2023-02-09T12:36:03.745Z,2.94
2023-02-09T12:37:03.826Z,2.94
2023-02-09T12:38:03.833Z,2.94
2023-02-09T12:39:04.818Z,2.94
2023-02-09T12:40:03.991Z,2.94
2023-02-09T12:41:04.023Z,3.00
2023-02-09T12:42:04.155Z,3.00
2023-02-09T12:43:04.166Z,3.00
2023-02-09T12:44:04.233Z,3.00
2023-02-09T12:45:04.064Z,3.00
2023-02-09T12:46:04.263Z,3.00
2023-02-09T12:47:04.377Z,3.06
2023-02-09T12:48:04.380Z,3.06
2023-02-09T12:49:04.487Z,3.06
2023-02-09T12:50:04.471Z,3.12
2023-02-09T12:51:04.381Z,3.12
2023-02-09T12:52:04.389Z,3.12
2023-02-09T12:53:04.390Z,3.12
2023-02-09T12:54:04.390Z,3.12
2023-02-09T12:55:04.408Z,3.12
2023-02-09T12:56:04.307Z,3.12
2023-02-09T12:57:04.308Z,3.12
2023-02-09T12:58:04.313Z,3.19
2023-02-09T12:59:04.310Z,3.19
2023-02-09T13:00:04.309Z,3.19
2023-02-09T13:01:04.543Z,3.25
2023-02-09T13:02:03.609Z,3.25